sensor_id;sensor_type;location;lat;lon;timestamp;pressure;altitude;pressure_sealevel;temperature;humidity
59106;BME280;44891;50.204;8.132;2022-08-07T00:01:58;99128.81;;;12.58;67.16
59106;BME280;44891;50.204;8.132;2022-08-07T00:06:00;99129.97;;;12.50;67.38
59106;BME280;44891;50.204;8.132;2022-08-07T00:10:02;99123.50;;;12.34;67.59
59106;BME280;44891;50.204;8.132;2022-08-07T00:14:05;99132.38;;;12.51;67.24
59106;BME280;44891;50.204;8.132;2022-08-07T00:18:08;99123.00;;;12.56;66.41
59106;BME280;44891;50.204;8.132;2022-08-07T00:22:10;99114.97;;;12.50;66.84
59106;BME280;44891;50.204;8.132;2022-08-07T00:26:12;99108.22;;;12.01;68.44
59106;BME280;44891;50.204;8.132;2022-08-07T00:30:14;99111.56;;;12.08;68.57
59106;BME280;44891;50.204;8.132;2022-08-07T00:34:18;99098.19;;;12.10;68.25
59106;BME280;44891;50.204;8.132;2022-08-07T00:38:20;99098.69;;;11.88;69.35
59106;BME280;44891;50.204;8.132;2022-08-07T00:42:22;99104.13;;;12.05;68.42
59106;BME280;44891;50.204;8.132;2022-08-07T00:46:25;99104.47;;;12.09;68.72
59106;BME280;44891;50.204;8.132;2022-08-07T00:50:28;99095.94;;;11.95;68.79
59106;BME280;44891;50.204;8.132;2022-08-07T00:54:30;99095.88;;;11.71;69.62
59106;BME280;44891;50.204;8.132;2022-08-07T00:58:33;99093.75;;;11.62;69.70
59106;BME280;44891;50.204;8.132;2022-08-07T01:02:35;99084.84;;;11.63;69.48
59106;BME280;44891;50.204;8.132;2022-08-07T01:06:38;99095.50;;;11.68;69.05
59106;BME280;44891;50.204;8.132;2022-08-07T01:10:40;99087.13;;;11.59;69.24
59106;BME280;44891;50.204;8.132;2022-08-07T01:14:43;99085.03;;;11.50;70.43
59106;BME280;44891;50.204;8.132;2022-08-07T01:18:46;99083.31;;;11.25;70.91
59106;BME280;44891;50.204;8.132;2022-08-07T01:22:49;99074.31;;;11.14;71.31
59106;BME280;44891;50.204;8.132;2022-08-07T01:26:52;99075.88;;;11.04;71.92
59106;BME280;44891;50.204;8.132;2022-08-07T01:30:57;99076.59;;;11.11;71.35
59106;BME280;44891;50.204;8.132;2022-08-07T01:35:02;99074.78;;;11.11;71.70
59106;BME280;44891;50.204;8.132;2022-08-07T01:39:06;99069.94;;;11.27;70.82
59106;BME280;44891;50.204;8.132;2022-08-07T01:43:08;99068.97;;;11.21;71.10
59106;BME280;44891;50.204;8.132;2022-08-07T01:47:11;99067.81;;;10.80;72.49
59106;BME280;44891;50.204;8.132;2022-08-07T01:51:17;99063.81;;;10.78;72.37
59106;BME280;44891;50.204;8.132;2022-08-07T01:55:24;99066.88;;;10.93;71.34
59106;BME280;44891;50.204;8.132;2022-08-07T01:59:32;99065.72;;;10.71;72.49
59106;BME280;44891;50.204;8.132;2022-08-07T02:03:40;99073.78;;;10.69;72.52
59106;BME280;44891;50.204;8.132;2022-08-07T02:07:48;99073.47;;;10.84;71.85
59106;BME280;44891;50.204;8.132;2022-08-07T02:11:55;99069.88;;;10.78;71.19
59106;BME280;44891;50.204;8.132;2022-08-07T02:16:01;99073.53;;;10.77;72.02
59106;BME280;44891;50.204;8.132;2022-08-07T02:20:05;99076.00;;;11.09;71.13
59106;BME280;44891;50.204;8.132;2022-08-07T02:24:09;99065.34;;;10.67;72.01
59106;BME280;44891;50.204;8.132;2022-08-07T02:28:13;99069.50;;;10.56;72.24
59106;BME280;44891;50.204;8.132;2022-08-07T02:32:17;99073.31;;;10.35;73.17
59106;BME280;44891;50.204;8.132;2022-08-07T02:36:22;99063.06;;;10.27;73.32
59106;BME280;44891;50.204;8.132;2022-08-07T02:40:25;99061.56;;;10.13;74.17
59106;BME280;44891;50.204;8.132;2022-08-07T02:44:31;99062.72;;;10.24;73.97
59106;BME280;44891;50.204;8.132;2022-08-07T02:48:34;99069.09;;;10.03;74.93
59106;BME280;44891;50.204;8.132;2022-08-07T02:52:41;99067.13;;;10.23;74.17
59106;BME280;44891;50.204;8.132;2022-08-07T02:56:46;99064.31;;;10.25;73.86
59106;BME280;44891;50.204;8.132;2022-08-07T03:00:51;99069.66;;;10.37;73.29
59106;BME280;44891;50.204;8.132;2022-08-07T03:04:57;99062.25;;;10.52;73.24
59106;BME280;44891;50.204;8.132;2022-08-07T03:09:01;99052.34;;;10.29;73.19
59106;BME280;44891;50.204;8.132;2022-08-07T03:13:05;99054.09;;;10.10;74.10
59106;BME280;44891;50.204;8.132;2022-08-07T03:17:09;99061.66;;;10.00;74.22
59106;BME280;44891;50.204;8.132;2022-08-07T03:21:11;99050.31;;;10.06;73.65
59106;BME280;44891;50.204;8.132;2022-08-07T03:25:14;99051.56;;;10.22;73.71
59106;BME280;44891;50.204;8.132;2022-08-07T03:29:18;99048.13;;;9.96;74.51
59106;BME280;44891;50.204;8.132;2022-08-07T03:33:23;99046.00;;;9.87;74.95
59106;BME280;44891;50.204;8.132;2022-08-07T03:37:26;99039.63;;;10.01;73.91
59106;BME280;44891;50.204;8.132;2022-08-07T03:41:28;99042.69;;;9.98;74.34
59106;BME280;44891;50.204;8.132;2022-08-07T03:45:32;99042.34;;;9.88;74.81
59106;BME280;44891;50.204;8.132;2022-08-07T03:49:41;99024.84;;;9.50;75.76
59106;BME280;44891;50.204;8.132;2022-08-07T03:53:44;99036.16;;;9.44;75.94
59106;BME280;44891;50.204;8.132;2022-08-07T03:57:47;99026.16;;;9.66;75.36
59106;BME280;44891;50.204;8.132;2022-08-07T04:01:52;99039.72;;;9.88;74.85
59106;BME280;44891;50.204;8.132;2022-08-07T04:05:58;99043.84;;;9.77;74.80
59106;BME280;44891;50.204;8.132;2022-08-07T04:10:02;99044.72;;;9.71;75.30
59106;BME280;44891;50.204;8.132;2022-08-07T04:14:05;99041.09;;;9.65;74.97
59106;BME280;44891;50.204;8.132;2022-08-07T04:18:10;99050.31;;;9.36;76.41
59106;BME280;44891;50.204;8.132;2022-08-07T04:22:14;99049.41;;;9.56;75.70
59106;BME280;44891;50.204;8.132;2022-08-07T04:26:18;99054.41;;;9.64;75.21
59106;BME280;44891;50.204;8.132;2022-08-07T04:30:20;99054.84;;;9.61;75.53
59106;BME280;44891;50.204;8.132;2022-08-07T04:34:28;99052.06;;;9.49;76.86
59106;BME280;44891;50.204;8.132;2022-08-07T04:38:33;99060.09;;;9.61;76.17
59106;BME280;44891;50.204;8.132;2022-08-07T04:42:36;99057.13;;;9.82;75.32
59106;BME280;44891;50.204;8.132;2022-08-07T04:46:43;99057.84;;;9.96;75.03
59106;BME280;44891;50.204;8.132;2022-08-07T04:50:52;99061.91;;;10.17;74.45
59106;BME280;44891;50.204;8.132;2022-08-07T04:55:03;99068.97;;;10.23;74.54
59106;BME280;44891;50.204;8.132;2022-08-07T04:59:11;99068.91;;;10.29;74.21
59106;BME280;44891;50.204;8.132;2022-08-07T05:03:19;99081.13;;;10.42;73.20
59106;BME280;44891;50.204;8.132;2022-08-07T05:07:29;99084.28;;;10.51;72.63
59106;BME280;44891;50.204;8.132;2022-08-07T05:11:39;99076.59;;;10.49;73.28
59106;BME280;44891;50.204;8.132;2022-08-07T05:15:45;99072.19;;;10.68;72.97
59106;BME280;44891;50.204;8.132;2022-08-07T05:19:51;99076.97;;;10.78;73.11
59106;BME280;44891;50.204;8.132;2022-08-07T05:23:58;99082.56;;;10.81;72.83
59106;BME280;44891;50.204;8.132;2022-08-07T05:28:03;99085.59;;;11.03;72.92
59106;BME280;44891;50.204;8.132;2022-08-07T05:32:06;99096.81;;;11.29;72.48
59106;BME280;44891;50.204;8.132;2022-08-07T05:36:09;99076.59;;;11.29;72.43
59106;BME280;44891;50.204;8.132;2022-08-07T05:40:14;99084.56;;;11.53;71.92
59106;BME280;44891;50.204;8.132;2022-08-07T05:44:20;99099.47;;;11.59;72.07
59106;BME280;44891;50.204;8.132;2022-08-07T05:48:23;99098.72;;;11.70;71.80
59106;BME280;44891;50.204;8.132;2022-08-07T05:52:26;99093.91;;;11.97;70.75
59106;BME280;44891;50.204;8.132;2022-08-07T05:56:30;99096.59;;;12.32;68.95
59106;BME280;44891;50.204;8.132;2022-08-07T06:00:35;99103.03;;;12.36;68.44
59106;BME280;44891;50.204;8.132;2022-08-07T06:04:45;99106.72;;;12.70;68.81
59106;BME280;44891;50.204;8.132;2022-08-07T06:08:48;99103.84;;;12.95;66.78
59106;BME280;44891;50.204;8.132;2022-08-07T06:12:52;99099.81;;;13.04;67.87
59106;BME280;44891;50.204;8.132;2022-08-07T06:16:55;99099.41;;;13.36;67.16
59106;BME280;44891;50.204;8.132;2022-08-07T06:21:05;99110.59;;;13.55;66.48
59106;BME280;44891;50.204;8.132;2022-08-07T06:25:12;99103.75;;;13.71;66.35
59106;BME280;44891;50.204;8.132;2022-08-07T06:29:14;99098.28;;;14.06;64.33
59106;BME280;44891;50.204;8.132;2022-08-07T06:33:18;99097.13;;;14.30;62.83
59106;BME280;44891;50.204;8.132;2022-08-07T06:37:22;99099.56;;;14.49;61.94
59106;BME280;44891;50.204;8.132;2022-08-07T06:41:27;99095.78;;;14.61;60.96
59106;BME280;44891;50.204;8.132;2022-08-07T06:45:31;99090.63;;;14.72;59.83
59106;BME280;44891;50.204;8.132;2022-08-07T06:49:37;99081.88;;;14.88;60.09
59106;BME280;44891;50.204;8.132;2022-08-07T06:53:40;99087.34;;;15.03;59.26
59106;BME280;44891;50.204;8.132;2022-08-07T06:57:45;99082.00;;;15.20;59.05
59106;BME280;44891;50.204;8.132;2022-08-07T07:01:51;99083.22;;;15.34;58.86
59106;BME280;44891;50.204;8.132;2022-08-07T07:05:58;99093.09;;;15.39;57.88
59106;BME280;44891;50.204;8.132;2022-08-07T07:10:00;99091.13;;;15.56;58.46
59106;BME280;44891;50.204;8.132;2022-08-07T07:14:03;99081.78;;;15.70;57.98
59106;BME280;44891;50.204;8.132;2022-08-07T07:18:10;99080.44;;;15.68;57.62
59106;BME280;44891;50.204;8.132;2022-08-07T07:22:17;99069.06;;;15.99;56.91
59106;BME280;44891;50.204;8.132;2022-08-07T07:26:21;99069.19;;;16.15;56.71
59106;BME280;44891;50.204;8.132;2022-08-07T07:30:26;99063.28;;;16.40;56.25
59106;BME280;44891;50.204;8.132;2022-08-07T07:34:31;99070.06;;;16.63;57.30
59106;BME280;44891;50.204;8.132;2022-08-07T07:38:37;99067.78;;;16.76;56.16
59106;BME280;44891;50.204;8.132;2022-08-07T07:42:42;99057.16;;;16.76;55.71
59106;BME280;44891;50.204;8.132;2022-08-07T07:46:45;99065.25;;;17.02;55.34
59106;BME280;44891;50.204;8.132;2022-08-07T07:50:50;99055.00;;;17.26;55.25
59106;BME280;44891;50.204;8.132;2022-08-07T07:54:54;99046.56;;;17.44;54.76
59106;BME280;44891;50.204;8.132;2022-08-07T07:58:58;99046.84;;;17.58;53.62
59106;BME280;44891;50.204;8.132;2022-08-07T08:03:04;99050.63;;;17.77;53.38
59106;BME280;44891;50.204;8.132;2022-08-07T08:07:07;99043.97;;;17.85;52.50
59106;BME280;44891;50.204;8.132;2022-08-07T08:11:11;99041.06;;;17.97;51.77
59106;BME280;44891;50.204;8.132;2022-08-07T08:15:13;99043.16;;;18.15;51.42
59106;BME280;44891;50.204;8.132;2022-08-07T08:19:19;99039.16;;;18.33;51.64
59106;BME280;44891;50.204;8.132;2022-08-07T08:23:26;99040.22;;;18.52;50.78
59106;BME280;44891;50.204;8.132;2022-08-07T08:27:52;99035.88;;;18.82;50.45
59106;BME280;44891;50.204;8.132;2022-08-07T08:31:55;99035.06;;;18.96;49.13
59106;BME280;44891;50.204;8.132;2022-08-07T08:36:09;99030.16;;;19.19;49.19
59106;BME280;44891;50.204;8.132;2022-08-07T08:40:17;99024.38;;;19.51;49.26
59106;BME280;44891;50.204;8.132;2022-08-07T08:44:25;99021.69;;;19.61;47.48
59106;BME280;44891;50.204;8.132;2022-08-07T08:48:33;99012.94;;;19.90;46.56
59106;BME280;44891;50.204;8.132;2022-08-07T08:52:42;99017.34;;;20.04;45.35
59106;BME280;44891;50.204;8.132;2022-08-07T08:56:48;98998.50;;;20.20;45.02
59106;BME280;44891;50.204;8.132;2022-08-07T09:00:59;99001.59;;;20.32;43.54
59106;BME280;44891;50.204;8.132;2022-08-07T09:05:11;99003.47;;;20.60;44.12
59106;BME280;44891;50.204;8.132;2022-08-07T09:09:33;98999.44;;;20.87;43.18
59106;BME280;44891;50.204;8.132;2022-08-07T09:13:40;98997.69;;;20.96;42.37
59106;BME280;44891;50.204;8.132;2022-08-07T09:17:56;98988.56;;;21.21;44.41
59106;BME280;44891;50.204;8.132;2022-08-07T09:22:13;98992.31;;;21.20;42.06
59106;BME280;44891;50.204;8.132;2022-08-07T09:26:23;98988.06;;;21.57;42.00
59106;BME280;44891;50.204;8.132;2022-08-07T09:30:36;98981.41;;;21.73;41.97
59106;BME280;44891;50.204;8.132;2022-08-07T09:34:51;98973.97;;;21.84;41.48
59106;BME280;44891;50.204;8.132;2022-08-07T09:39:02;98975.91;;;21.64;41.16
59106;BME280;44891;50.204;8.132;2022-08-07T09:43:18;98978.88;;;21.63;40.54
59106;BME280;44891;50.204;8.132;2022-08-07T09:47:30;98973.13;;;22.02;41.23
59106;BME280;44891;50.204;8.132;2022-08-07T09:51:45;98967.75;;;22.21;40.26
59106;BME280;44891;50.204;8.132;2022-08-07T09:56:22;98966.28;;;22.42;40.48
59106;BME280;44891;50.204;8.132;2022-08-07T10:00:42;98951.78;;;22.57;39.43
59106;BME280;44891;50.204;8.132;2022-08-07T10:05:02;98946.53;;;22.24;39.17
59106;BME280;44891;50.204;8.132;2022-08-07T10:09:38;98941.38;;;22.56;39.07
59106;BME280;44891;50.204;8.132;2022-08-07T10:13:44;98927.50;;;22.53;39.29
59106;BME280;44891;50.204;8.132;2022-08-07T10:18:03;98919.75;;;22.38;39.35
59106;BME280;44891;50.204;8.132;2022-08-07T10:22:24;98919.75;;;23.16;38.24
59106;BME280;44891;50.204;8.132;2022-08-07T10:31:10;98911.53;;;23.34;37.66
59106;BME280;44891;50.204;8.132;2022-08-07T10:35:23;98901.00;;;23.38;37.45
59106;BME280;44891;50.204;8.132;2022-08-07T10:39:36;98890.81;;;23.49;37.38
59106;BME280;44891;50.204;8.132;2022-08-07T10:43:47;98896.00;;;23.45;36.45
59106;BME280;44891;50.204;8.132;2022-08-07T10:48:02;98895.16;;;23.90;36.48
59106;BME280;44891;50.204;8.132;2022-08-07T10:52:11;98896.84;;;23.54;36.29
59106;BME280;44891;50.204;8.132;2022-08-07T10:56:24;98902.28;;;23.18;36.90
59106;BME280;44891;50.204;8.132;2022-08-07T11:00:44;98899.66;;;23.49;37.33
59106;BME280;44891;50.204;8.132;2022-08-07T11:05:01;98892.53;;;23.45;36.29
59106;BME280;44891;50.204;8.132;2022-08-07T11:09:09;98885.81;;;23.56;36.42
59106;BME280;44891;50.204;8.132;2022-08-07T11:13:19;98873.44;;;24.00;35.92
59106;BME280;44891;50.204;8.132;2022-08-07T11:17:29;98858.09;;;23.92;36.35
59106;BME280;44891;50.204;8.132;2022-08-07T11:21:38;98876.22;;;23.86;35.71
59106;BME280;44891;50.204;8.132;2022-08-07T11:25:49;98861.94;;;24.17;35.67
59106;BME280;44891;50.204;8.132;2022-08-07T11:29:58;98870.63;;;24.97;35.16
59106;BME280;44891;50.204;8.132;2022-08-07T11:34:10;98858.47;;;24.90;33.93
59106;BME280;44891;50.204;8.132;2022-08-07T11:38:19;98847.53;;;24.87;34.38
59106;BME280;44891;50.204;8.132;2022-08-07T11:42:32;98848.50;;;24.65;34.69
59106;BME280;44891;50.204;8.132;2022-08-07T11:46:42;98834.28;;;24.99;34.74
59106;BME280;44891;50.204;8.132;2022-08-07T11:51:12;98834.41;;;25.37;33.16
59106;BME280;44891;50.204;8.132;2022-08-07T11:55:25;98833.41;;;25.42;33.37
59106;BME280;44891;50.204;8.132;2022-08-07T12:04:12;98832.63;;;25.50;32.68
59106;BME280;44891;50.204;8.132;2022-08-07T12:08:22;98812.72;;;25.42;32.22
59106;BME280;44891;50.204;8.132;2022-08-07T12:12:27;98820.72;;;25.60;32.57
59106;BME280;44891;50.204;8.132;2022-08-07T12:16:42;98813.63;;;25.93;32.36
59106;BME280;44891;50.204;8.132;2022-08-07T12:20:53;98826.50;;;26.38;32.40
59106;BME280;44891;50.204;8.132;2022-08-07T12:25:02;98818.88;;;26.70;31.87
59106;BME280;44891;50.204;8.132;2022-08-07T12:29:27;98824.97;;;26.58;31.28
59106;BME280;44891;50.204;8.132;2022-08-07T12:33:32;98810.00;;;26.19;30.67
59106;BME280;44891;50.204;8.132;2022-08-07T12:37:36;98812.06;;;25.92;31.13
59106;BME280;44891;50.204;8.132;2022-08-07T12:41:41;98814.19;;;26.08;30.85
59106;BME280;44891;50.204;8.132;2022-08-07T12:45:47;98797.97;;;25.95;30.92
59106;BME280;44891;50.204;8.132;2022-08-07T12:49:58;98801.47;;;25.87;30.73
59106;BME280;44891;50.204;8.132;2022-08-07T12:54:07;98801.47;;;25.87;30.87
59106;BME280;44891;50.204;8.132;2022-08-07T12:58:17;98798.34;;;26.36;30.44
59106;BME280;44891;50.204;8.132;2022-08-07T13:02:38;98799.31;;;26.31;30.35
59106;BME280;44891;50.204;8.132;2022-08-07T13:11:24;98793.72;;;26.15;30.30
59106;BME280;44891;50.204;8.132;2022-08-07T13:15:36;98790.38;;;26.39;30.48
59106;BME280;44891;50.204;8.132;2022-08-07T13:19:49;98796.66;;;26.52;30.74
59106;BME280;44891;50.204;8.132;2022-08-07T13:24:07;98790.72;;;26.79;31.09
59106;BME280;44891;50.204;8.132;2022-08-07T13:28:14;98779.34;;;26.74;29.90
59106;BME280;44891;50.204;8.132;2022-08-07T13:32:24;98788.25;;;26.53;29.43
59106;BME280;44891;50.204;8.132;2022-08-07T13:36:31;98773.66;;;26.75;29.73
59106;BME280;44891;50.204;8.132;2022-08-07T13:40:38;98762.34;;;26.40;29.67
59106;BME280;44891;50.204;8.132;2022-08-07T13:44:44;98764.94;;;27.36;28.86
59106;BME280;44891;50.204;8.132;2022-08-07T13:48:51;98764.53;;;26.80;29.38
59106;BME280;44891;50.204;8.132;2022-08-07T13:52:55;98765.06;;;26.94;29.31
59106;BME280;44891;50.204;8.132;2022-08-07T13:56:59;98771.56;;;26.93;28.99
59106;BME280;44891;50.204;8.132;2022-08-07T14:01:09;98769.09;;;27.00;29.11
59106;BME280;44891;50.204;8.132;2022-08-07T14:05:19;98766.72;;;27.32;27.19
59106;BME280;44891;50.204;8.132;2022-08-07T14:09:25;98763.91;;;27.16;28.49
59106;BME280;44891;50.204;8.132;2022-08-07T14:13:29;98748.88;;;27.64;27.75
59106;BME280;44891;50.204;8.132;2022-08-07T14:17:35;98757.75;;;27.28;27.70
59106;BME280;44891;50.204;8.132;2022-08-07T14:21:41;98746.31;;;27.55;27.64
59106;BME280;44891;50.204;8.132;2022-08-07T14:25:46;98749.78;;;27.92;26.75
59106;BME280;44891;50.204;8.132;2022-08-07T14:29:54;98747.13;;;27.80;27.13
59106;BME280;44891;50.204;8.132;2022-08-07T14:33:58;98737.16;;;27.11;27.57
59106;BME280;44891;50.204;8.132;2022-08-07T14:38:03;98745.19;;;26.99;27.08
59106;BME280;44891;50.204;8.132;2022-08-07T14:42:08;98741.19;;;27.05;27.02
59106;BME280;44891;50.204;8.132;2022-08-07T14:46:15;98731.25;;;27.42;26.81
59106;BME280;44891;50.204;8.132;2022-08-07T14:50:19;98725.72;;;27.38;27.33
59106;BME280;44891;50.204;8.132;2022-08-07T14:54:28;98730.22;;;27.47;27.32
59106;BME280;44891;50.204;8.132;2022-08-07T14:58:33;98721.56;;;27.41;26.46
59106;BME280;44891;50.204;8.132;2022-08-07T15:02:36;98722.84;;;27.68;25.67
59106;BME280;44891;50.204;8.132;2022-08-07T15:06:39;98718.78;;;27.74;25.82
59106;BME280;44891;50.204;8.132;2022-08-07T15:10:55;98712.25;;;27.75;24.94
59106;BME280;44891;50.204;8.132;2022-08-07T15:15:03;98714.47;;;27.85;25.34
59106;BME280;44891;50.204;8.132;2022-08-07T15:19:13;98710.38;;;28.72;24.53
59106;BME280;44891;50.204;8.132;2022-08-07T15:23:19;98709.66;;;27.30;25.45
59106;BME280;44891;50.204;8.132;2022-08-07T15:27:26;98715.03;;;27.18;25.48
59106;BME280;44891;50.204;8.132;2022-08-07T15:31:30;98710.66;;;27.25;26.04
59106;BME280;44891;50.204;8.132;2022-08-07T15:35:35;98699.16;;;28.02;24.84
59106;BME280;44891;50.204;8.132;2022-08-07T15:39:40;98692.56;;;27.87;25.18
59106;BME280;44891;50.204;8.132;2022-08-07T15:43:57;98697.53;;;28.53;25.47
59106;BME280;44891;50.204;8.132;2022-08-07T15:48:04;98699.50;;;28.40;24.90
59106;BME280;44891;50.204;8.132;2022-08-07T15:52:09;98696.84;;;28.56;24.86
59106;BME280;44891;50.204;8.132;2022-08-07T15:56:12;98677.81;;;27.84;25.93
59106;BME280;44891;50.204;8.132;2022-08-07T16:00:19;98686.31;;;29.27;24.61
59106;BME280;44891;50.204;8.132;2022-08-07T16:04:27;98681.53;;;27.55;25.43
59106;BME280;44891;50.204;8.132;2022-08-07T16:08:31;98659.50;;;27.53;25.96
59106;BME280;44891;50.204;8.132;2022-08-07T16:12:42;98678.63;;;26.66;26.97
59106;BME280;44891;50.204;8.132;2022-08-07T16:17:02;98666.06;;;27.28;26.44
59106;BME280;44891;50.204;8.132;2022-08-07T16:21:12;98675.94;;;27.24;26.30
59106;BME280;44891;50.204;8.132;2022-08-07T16:25:38;98688.50;;;26.62;26.64
59106;BME280;44891;50.204;8.132;2022-08-07T16:30:04;98681.38;;;26.03;26.72
59106;BME280;44891;50.204;8.132;2022-08-07T16:34:21;98679.13;;;25.85;27.15
59106;BME280;44891;50.204;8.132;2022-08-07T16:38:33;98681.22;;;26.21;27.50
59106;BME280;44891;50.204;8.132;2022-08-07T16:42:47;98673.13;;;26.63;26.60
59106;BME280;44891;50.204;8.132;2022-08-07T16:47:12;98674.56;;;26.39;26.66
59106;BME280;44891;50.204;8.132;2022-08-07T16:51:29;98676.31;;;26.23;26.96
59106;BME280;44891;50.204;8.132;2022-08-07T16:55:38;98663.56;;;25.61;27.17
59106;BME280;44891;50.204;8.132;2022-08-07T16:59:47;98675.19;;;25.82;27.75
59106;BME280;44891;50.204;8.132;2022-08-07T17:04:02;98672.69;;;25.77;27.63
59106;BME280;44891;50.204;8.132;2022-08-07T17:08:08;98665.88;;;25.80;27.37
59106;BME280;44891;50.204;8.132;2022-08-07T17:12:14;98663.91;;;25.89;27.63
59106;BME280;44891;50.204;8.132;2022-08-07T17:16:21;98667.25;;;25.86;28.27
59106;BME280;44891;50.204;8.132;2022-08-07T17:20:30;98671.91;;;25.68;27.77
59106;BME280;44891;50.204;8.132;2022-08-07T17:25:02;98669.81;;;25.53;28.93
59106;BME280;44891;50.204;8.132;2022-08-07T17:29:08;98666.91;;;25.37;28.47
59106;BME280;44891;50.204;8.132;2022-08-07T17:33:16;98668.06;;;25.48;28.79
59106;BME280;44891;50.204;8.132;2022-08-07T17:37:22;98671.13;;;25.08;28.65
59106;BME280;44891;50.204;8.132;2022-08-07T17:41:38;98671.97;;;24.83;28.78
59106;BME280;44891;50.204;8.132;2022-08-07T17:45:53;98664.72;;;24.83;28.76
59106;BME280;44891;50.204;8.132;2022-08-07T17:49:59;98671.03;;;24.79;28.85
59106;BME280;44891;50.204;8.132;2022-08-07T17:54:07;98672.78;;;24.75;29.78
59106;BME280;44891;50.204;8.132;2022-08-07T17:58:17;98675.16;;;24.76;29.65
59106;BME280;44891;50.204;8.132;2022-08-07T18:02:28;98661.59;;;24.29;29.93
59106;BME280;44891;50.204;8.132;2022-08-07T18:06:35;98679.78;;;24.24;30.04
59106;BME280;44891;50.204;8.132;2022-08-07T18:10:42;98680.38;;;23.95;30.09
59106;BME280;44891;50.204;8.132;2022-08-07T18:14:58;98679.44;;;23.82;29.89
59106;BME280;44891;50.204;8.132;2022-08-07T18:19:10;98680.03;;;23.62;30.04
59106;BME280;44891;50.204;8.132;2022-08-07T18:23:28;98680.78;;;23.53;30.64
59106;BME280;44891;50.204;8.132;2022-08-07T18:28:03;98678.53;;;23.47;31.14
59106;BME280;44891;50.204;8.132;2022-08-07T18:32:14;98693.50;;;23.39;31.28
59106;BME280;44891;50.204;8.132;2022-08-07T18:36:20;98695.66;;;23.28;31.40
59106;BME280;44891;50.204;8.132;2022-08-07T18:40:28;98703.38;;;23.30;31.88
59106;BME280;44891;50.204;8.132;2022-08-07T18:44:38;98706.44;;;23.06;32.46
59106;BME280;44891;50.204;8.132;2022-08-07T18:48:52;98704.78;;;22.88;35.04
59106;BME280;44891;50.204;8.132;2022-08-07T18:53:01;98705.47;;;22.57;36.23
59106;BME280;44891;50.204;8.132;2022-08-07T18:57:19;98724.66;;;22.50;36.35
59106;BME280;44891;50.204;8.132;2022-08-07T19:01:29;98724.44;;;22.24;37.26
59106;BME280;44891;50.204;8.132;2022-08-07T19:05:38;98727.56;;;21.90;39.26
59106;BME280;44891;50.204;8.132;2022-08-07T19:09:48;98718.22;;;21.19;41.26
59106;BME280;44891;50.204;8.132;2022-08-07T19:13:59;98707.34;;;21.15;39.78
59106;BME280;44891;50.204;8.132;2022-08-07T19:18:18;98730.78;;;21.05;40.59
59106;BME280;44891;50.204;8.132;2022-08-07T19:22:31;98732.09;;;20.75;40.45
59106;BME280;44891;50.204;8.132;2022-08-07T19:26:42;98734.47;;;20.38;41.62
59106;BME280;44891;50.204;8.132;2022-08-07T19:30:45;98740.31;;;20.03;43.03
59106;BME280;44891;50.204;8.132;2022-08-07T19:34:52;98742.69;;;20.04;42.90
59106;BME280;44891;50.204;8.132;2022-08-07T19:38:59;98746.72;;;20.02;41.83
59106;BME280;44891;50.204;8.132;2022-08-07T19:43:09;98751.97;;;19.88;41.43
59106;BME280;44891;50.204;8.132;2022-08-07T19:47:15;98751.38;;;19.67;42.66
59106;BME280;44891;50.204;8.132;2022-08-07T19:51:19;98762.38;;;19.37;43.71
59106;BME280;44891;50.204;8.132;2022-08-07T19:55:23;98768.97;;;19.39;43.30
59106;BME280;44891;50.204;8.132;2022-08-07T19:59:27;98775.63;;;19.42;44.07
59106;BME280;44891;50.204;8.132;2022-08-07T20:03:35;98769.56;;;19.36;44.19
59106;BME280;44891;50.204;8.132;2022-08-07T20:07:40;98772.91;;;19.18;44.41
59106;BME280;44891;50.204;8.132;2022-08-07T20:11:46;98770.47;;;18.92;46.20
59106;BME280;44891;50.204;8.132;2022-08-07T20:15:48;98772.22;;;18.73;45.62
59106;BME280;44891;50.204;8.132;2022-08-07T20:19:52;98772.00;;;18.64;46.05
59106;BME280;44891;50.204;8.132;2022-08-07T20:23:55;98776.13;;;18.41;46.81
59106;BME280;44891;50.204;8.132;2022-08-07T20:28:05;98785.78;;;18.22;48.31
59106;BME280;44891;50.204;8.132;2022-08-07T20:32:10;98785.72;;;17.78;49.40
59106;BME280;44891;50.204;8.132;2022-08-07T20:36:14;98786.78;;;17.61;49.82
59106;BME280;44891;50.204;8.132;2022-08-07T20:40:20;98784.69;;;17.48;50.16
59106;BME280;44891;50.204;8.132;2022-08-07T20:44:28;98776.75;;;17.38;50.18
59106;BME280;44891;50.204;8.132;2022-08-07T20:48:33;98750.53;;;17.11;50.71
59106;BME280;44891;50.204;8.132;2022-08-07T20:52:35;98777.84;;;16.76;52.34
59106;BME280;44891;50.204;8.132;2022-08-07T20:56:38;98786.63;;;16.87;52.32
59106;BME280;44891;50.204;8.132;2022-08-07T21:00:44;98786.06;;;16.95;51.83
59106;BME280;44891;50.204;8.132;2022-08-07T21:04:48;98784.22;;;17.10;50.36
59106;BME280;44891;50.204;8.132;2022-08-07T21:08:54;98787.41;;;16.92;50.59
59106;BME280;44891;50.204;8.132;2022-08-07T21:13:04;98794.56;;;16.92;50.99
59106;BME280;44891;50.204;8.132;2022-08-07T21:17:10;98792.63;;;16.46;53.57
59106;BME280;44891;50.204;8.132;2022-08-07T21:21:15;98792.38;;;16.63;53.19
59106;BME280;44891;50.204;8.132;2022-08-07T21:25:24;98794.69;;;16.19;54.10
59106;BME280;44891;50.204;8.132;2022-08-07T21:29:29;98799.25;;;16.49;53.91
59106;BME280;44891;50.204;8.132;2022-08-07T21:33:38;98808.84;;;16.65;53.70
59106;BME280;44891;50.204;8.132;2022-08-07T21:37:50;98813.00;;;16.25;54.46
59106;BME280;44891;50.204;8.132;2022-08-07T21:42:03;98793.69;;;15.77;55.48
59106;BME280;44891;50.204;8.132;2022-08-07T21:46:13;98812.34;;;15.98;54.91
59106;BME280;44891;50.204;8.132;2022-08-07T21:50:21;98811.81;;;16.01;55.17
59106;BME280;44891;50.204;8.132;2022-08-07T21:54:37;98810.50;;;16.03;55.68
59106;BME280;44891;50.204;8.132;2022-08-07T21:58:45;98814.19;;;15.92;55.92
59106;BME280;44891;50.204;8.132;2022-08-07T22:03:00;98823.28;;;15.64;56.55
59106;BME280;44891;50.204;8.132;2022-08-07T22:07:15;98815.28;;;15.59;56.56